Aviation Digital Data Service (ADDS)

Output produced by METARs form (2304 UTC 14 February 2016)
found at http://aviationweather.gov/adds/metars/
 
METAR text: KBFM 142253Z 11007KT 10SM OVC032 14/10 A3018 RMK AO2 SLP218 T01440100
Conditions at: KBFM (MOBILE/BROOKLEY , AL, US) observed 2253 UTC 14 February 2016
Temperature: 14.4°C (58°F)
Dewpoint: 10.0°C (50°F) [RH = 75%]
Pressure (altimeter): 30.18 inches Hg (1022.1 mb)
[Sea-level pressure: 1021.8 mb]
Winds: from the ESE (110 degrees) at 8 MPH (7 knots; 3.6 m/s)
Visibility: 10 or more miles (16+ km)
Ceiling: 3200 feet AGL
Clouds: overcast cloud deck at 3200 feet AGL
Weather: no significant weather observed at this time